Time;durP1;ratioP1;P1;durP2;ratioP2;P2;SDS_P1;SDS_P2;PMS_P1;PMS_P2;Temp;Humidity;BMP_temperature;BMP_pressure;BME280_temperature;BME280_humidity;BME280_pressure;Samples;Min_cycle;Max_cycle;Signal;HPM_P1;HPM_P2
2022/06/12 00:02:00;;;;;;;6.00;3.65;;;13.20;99.90;;;;;;4982857;28;20109;-89
2022/06/12 00:04:27;;;;;;;12.43;3.92;;;13.20;99.90;;;;;;4983756;28;20199;-89
2022/06/12 00:06:54;;;;;;;7.40;4.15;;;13.20;99.90;;;;;;4981866;28;20049;-88
2022/06/12 00:09:23;;;;;;;8.30;3.90;;;13.10;99.90;;;;;;4984183;28;20042;-89
2022/06/12 00:11:50;;;;;;;6.85;3.25;;;13.10;99.90;;;;;;4983420;28;20368;-89
2022/06/12 00:14:17;;;;;;;5.13;3.78;;;13.10;99.90;;;;;;4981630;28;20054;-89
2022/06/12 00:16:46;;;;;;;6.45;3.47;;;13.10;99.90;;;;;;4978898;28;20054;-89
2022/06/12 00:19:14;;;;;;;5.80;3.28;;;13.10;99.90;;;;;;4984452;28;20046;-89
2022/06/12 00:21:41;;;;;;;7.00;3.90;;;13.00;99.90;;;;;;4989490;28;20058;-89
2022/06/12 00:24:12;;;;;;;8.73;3.47;;;13.00;99.90;;;;;;4963862;28;20054;-89
2022/06/12 00:26:44;;;;;;;8.50;3.70;;;13.00;99.90;;;;;;4946548;28;20065;-89
2022/06/12 00:29:15;;;;;;;4.38;3.30;;;12.90;99.90;;;;;;4948869;28;20439;-89
2022/06/12 00:31:46;;;;;;;6.28;3.30;;;12.90;99.90;;;;;;4984754;28;20510;-89
2022/06/12 00:34:26;;;;;;;9.38;4.32;;;12.90;99.90;;;;;;4977523;28;22221;-89
2022/06/12 00:37:07;;;;;;;9.13;4.53;;;12.90;99.90;;;;;;4964643;28;20199;-89
2022/06/12 00:39:34;;;;;;;5.82;3.30;;;12.90;99.90;;;;;;4980876;28;20064;-89
2022/06/12 00:42:03;;;;;;;8.73;3.40;;;12.90;99.90;;;;;;4974400;28;20192;-89
2022/06/12 00:44:37;;;;;;;4.50;3.17;;;12.90;99.90;;;;;;4966118;28;20458;-89
2022/06/12 00:47:08;;;;;;;7.35;3.55;;;12.90;99.90;;;;;;4987773;28;20073;-89
2022/06/12 00:49:46;;;;;;;8.50;4.93;;;12.90;99.90;;;;;;4952277;28;20440;-89
2022/06/12 00:52:42;;;;;;;8.00;3.83;;;12.90;99.90;;;;;;4979835;28;20057;-89
2022/06/12 00:55:43;;;;;;;10.70;4.28;;;12.90;99.90;;;;;;4979149;28;20096;-89
2022/06/12 00:58:16;;;;;;;9.52;4.03;;;12.90;99.90;;;;;;4984750;28;20058;-89
2022/06/12 01:00:43;;;;;;;6.07;3.35;;;12.90;99.90;;;;;;4979891;28;20042;-89
2022/06/12 01:03:11;;;;;;;5.85;4.43;;;12.80;99.90;;;;;;4981943;28;20047;-89
2022/06/12 01:08:25;;;;;;;7.05;4.05;;;12.80;99.90;;;;;;4983181;28;20047;-89
2022/06/12 01:10:56;;;;;;;5.50;3.45;;;12.80;99.90;;;;;;4969074;28;20054;-90
2022/06/12 01:13:27;;;;;;;7.80;4.28;;;12.80;99.90;;;;;;4984168;28;20149;-90
2022/06/12 01:16:05;;;;;;;7.43;3.75;;;12.80;99.90;;;;;;4986606;28;20050;-90
2022/06/12 01:18:38;;;;;;;8.57;3.60;;;12.80;99.90;;;;;;4982326;28;20058;-90
2022/06/12 01:21:39;;;;;;;8.52;4.15;;;12.80;99.90;;;;;;4976349;28;20136;-89
2022/06/12 01:24:45;;;;;;;8.52;3.75;;;12.80;99.90;;;;;;4946193;28;20086;-89
2022/06/12 01:27:38;;;;;;;7.63;3.80;;;12.80;99.90;;;;;;4921957;28;20081;-89
2022/06/12 01:30:18;;;;;;;10.95;5.25;;;12.90;99.90;;;;;;4985652;28;20624;-89
2022/06/12 01:33:15;;;;;;;9.93;4.22;;;12.90;99.90;;;;;;4981208;28;21996;-90
2022/06/12 01:36:12;;;;;;;5.43;3.42;;;13.00;99.90;;;;;;4973280;28;20061;-89
2022/06/12 01:38:45;;;;;;;9.40;5.38;;;13.00;99.90;;;;;;4965794;28;20077;-89
2022/06/12 01:41:33;;;;;;;19.80;4.68;;;13.10;99.90;;;;;;4983655;28;20054;-89
2022/06/12 01:44:37;;;;;;;9.57;3.90;;;13.10;99.90;;;;;;4974388;28;20509;-89
2022/06/12 01:47:25;;;;;;;6.65;3.22;;;13.10;99.90;;;;;;4979906;28;20046;-89
2022/06/12 01:50:38;;;;;;;6.10;3.00;;;13.10;99.90;;;;;;4983847;28;20108;-89
2022/06/12 01:53:57;;;;;;;9.23;4.28;;;13.20;99.90;;;;;;4962359;28;20554;-90
2022/06/12 01:56:44;;;;;;;6.10;3.10;;;13.40;99.90;;;;;;4962804;28;20434;-90
2022/06/12 01:59:25;;;;;;;8.43;3.55;;;13.60;99.90;;;;;;4979967;28;20411;-90
2022/06/12 02:01:58;;;;;;;10.68;3.55;;;13.80;99.90;;;;;;4983589;28;20047;-89
2022/06/12 02:04:33;;;;;;;6.57;3.30;;;14.00;99.90;;;;;;4962082;28;20589;-89
2022/06/12 02:07:08;;;;;;;5.85;2.80;;;14.10;99.90;;;;;;4990175;28;20052;-89
2022/06/12 02:09:41;;;;;;;11.25;4.40;;;14.20;99.90;;;;;;4987559;28;20687;-89
2022/06/12 02:15:40;;;;;;;18.20;4.32;;;14.30;99.90;;;;;;4975294;28;20062;-89
2022/06/12 02:18:29;;;;;;;6.00;2.83;;;14.30;99.90;;;;;;4982110;28;20145;-90
2022/06/12 02:21:07;;;;;;;8.10;4.30;;;14.40;99.90;;;;;;4982138;28;20057;-90
2022/06/12 02:23:48;;;;;;;10.98;4.60;;;14.30;99.90;;;;;;4987648;28;21735;-89
2022/06/12 02:26:20;;;;;;;8.30;3.78;;;14.40;99.90;;;;;;4959480;28;20051;-89
2022/06/12 02:29:02;;;;;;;13.40;3.80;;;14.40;99.90;;;;;;4941996;28;20294;-90
2022/06/12 02:31:34;;;;;;;15.15;3.60;;;14.40;99.90;;;;;;4985260;28;20122;-89
2022/06/12 02:34:25;;;;;;;5.93;3.00;;;14.40;99.90;;;;;;4953559;28;20105;-89
2022/06/12 02:36:57;;;;;;;8.13;3.40;;;14.40;99.90;;;;;;4981750;28;20054;-90
2022/06/12 02:39:31;;;;;;;6.15;3.35;;;14.40;99.90;;;;;;4963492;28;20050;-89
2022/06/12 02:42:07;;;;;;;5.10;3.05;;;14.50;99.90;;;;;;4983258;28;20058;-89
2022/06/12 02:44:55;;;;;;;12.95;3.30;;;14.50;99.90;;;;;;4982705;28;20056;-89
2022/06/12 02:47:26;;;;;;;8.05;3.13;;;14.50;99.90;;;;;;4965999;28;20057;-89
2022/06/12 02:49:55;;;;;;;7.85;3.55;;;14.50;99.90;;;;;;4982946;28;20054;-89
2022/06/12 02:52:40;;;;;;;10.65;4.18;;;14.60;99.90;;;;;;4985982;28;20459;-90
2022/06/12 02:55:16;;;;;;;10.95;5.07;;;14.60;99.90;;;;;;4980511;28;20140;-90
2022/06/12 02:57:54;;;;;;;16.27;4.95;;;14.60;99.90;;;;;;4988768;28;20495;-89
2022/06/12 03:00:35;;;;;;;10.85;3.58;;;14.60;99.90;;;;;;4986994;28;20050;-89
2022/06/12 03:03:08;;;;;;;5.68;3.47;;;14.60;99.90;;;;;;4978573;28;20057;-88
2022/06/12 03:05:39;;;;;;;12.73;4.22;;;14.70;99.90;;;;;;4989561;28;20313;-88
2022/06/12 03:08:15;;;;;;;10.93;4.03;;;14.70;99.90;;;;;;4987537;28;20392;-88
2022/06/12 03:11:04;;;;;;;10.63;4.43;;;14.70;99.90;;;;;;4952753;28;20042;-89
2022/06/12 03:13:33;;;;;;;8.38;4.07;;;14.70;99.90;;;;;;4982350;28;20046;-89
2022/06/12 03:16:27;;;;;;;12.95;3.85;;;14.70;99.90;;;;;;4986983;28;20098;-89
2022/06/12 03:18:57;;;;;;;11.10;3.25;;;14.70;99.90;;;;;;4934424;28;20539;-89
2022/06/12 03:21:54;;;;;;;10.38;4.78;;;14.70;99.90;;;;;;4988024;28;20702;-89
2022/06/12 03:24:27;;;;;;;6.70;3.72;;;14.80;99.90;;;;;;4973487;28;20050;-87
2022/06/12 03:27:10;;;;;;;11.65;4.40;;;14.80;99.90;;;;;;4968956;28;20411;-88
2022/06/12 03:29:47;;;;;;;7.18;2.97;;;14.90;99.90;;;;;;4986216;28;20039;-88
2022/06/12 03:32:45;;;;;;;7.35;3.08;;;15.00;99.90;;;;;;4966636;28;20518;-87
2022/06/12 03:35:30;;;;;;;7.18;3.10;;;15.00;99.90;;;;;;4978177;28;20109;-88
2022/06/12 03:38:26;;;;;;;10.10;3.72;;;15.00;99.90;;;;;;4976442;28;20050;-87
2022/06/12 03:41:02;;;;;;;10.07;3.90;;;15.00;99.90;;;;;;4981523;28;20050;-88
2022/06/12 03:44:14;;;;;;;14.60;5.60;;;15.00;99.90;;;;;;4993316;28;20073;-88
2022/06/12 03:46:44;;;;;;;19.88;4.18;;;15.00;99.90;;;;;;4959472;28;20695;-88
2022/06/12 03:49:38;;;;;;;9.77;3.58;;;15.00;99.90;;;;;;4963171;28;20065;-89
2022/06/12 03:52:25;;;;;;;9.52;4.28;;;15.00;99.90;;;;;;4975833;28;20661;-88
2022/06/12 03:54:57;;;;;;;10.43;3.22;;;15.00;99.90;;;;;;4964888;28;20106;-88
2022/06/12 03:57:50;;;;;;;10.38;3.67;;;15.10;99.90;;;;;;4962351;28;20507;-88
2022/06/12 04:00:30;;;;;;;10.35;3.42;;;15.00;99.90;;;;;;4982625;28;20074;-88
2022/06/12 04:03:10;;;;;;;10.02;3.65;;;15.10;99.90;;;;;;4967911;28;20053;-88
2022/06/12 04:05:42;;;;;;;11.63;3.40;;;15.10;99.90;;;;;;4962319;28;20144;-88
2022/06/12 04:08:14;;;;;;;8.52;3.40;;;15.20;99.90;;;;;;4980872;28;20057;-88
2022/06/12 04:10:42;;;;;;;7.05;3.90;;;15.20;99.90;;;;;;4950329;28;20347;-88
2022/06/12 04:13:12;;;;;;;9.80;3.95;;;15.20;99.90;;;;;;4983229;28;20782;-88
2022/06/12 04:15:44;;;;;;;11.18;4.57;;;15.20;99.90;;;;;;4982961;28;20045;-88
2022/06/12 04:18:12;;;;;;;7.93;3.55;;;15.20;99.90;;;;;;4983245;28;20571;-88
2022/06/12 04:20:54;;;;;;;8.38;3.80;;;15.20;99.90;;;;;;4960315;28;20515;-88
2022/06/12 04:24:02;;;;;;;11.23;4.60;;;15.20;99.90;;;;;;4964751;28;20042;-88
2022/06/12 04:26:50;;;;;;;9.88;3.83;;;15.20;99.90;;;;;;4970023;28;20050;-88
2022/06/12 04:29:23;;;;;;;9.30;3.53;;;15.20;99.90;;;;;;4959988;28;20050;-88
2022/06/12 04:31:54;;;;;;;8.48;3.65;;;15.20;99.90;;;;;;4977756;28;20101;-88
2022/06/12 04:34:29;;;;;;;10.98;3.53;;;15.20;99.90;;;;;;4980664;28;20142;-88
2022/06/12 04:37:00;;;;;;;10.75;4.13;;;15.20;99.90;;;;;;4960490;28;20043;-88
2022/06/12 04:39:31;;;;;;;8.63;4.15;;;15.20;99.90;;;;;;4953208;28;20049;-89
2022/06/12 04:42:00;;;;;;;7.65;3.75;;;15.30;99.90;;;;;;4987496;28;20061;-88
2022/06/12 04:44:27;;;;;;;5.28;3.20;;;15.40;99.90;;;;;;4977718;28;20050;-88
2022/06/12 04:46:57;;;;;;;10.35;3.78;;;15.40;99.90;;;;;;4967762;28;20047;-89
2022/06/12 04:49:27;;;;;;;9.50;4.10;;;15.40;99.90;;;;;;4966636;28;20092;-89
2022/06/12 04:51:56;;;;;;;8.70;3.28;;;15.40;99.90;;;;;;4963835;28;20506;-89
2022/06/12 04:54:27;;;;;;;8.25;3.70;;;15.40;99.90;;;;;;4979552;28;20192;-88
2022/06/12 04:56:55;;;;;;;9.25;3.63;;;15.40;99.90;;;;;;4968595;28;20093;-89
2022/06/12 04:59:22;;;;;;;8.07;4.00;;;15.40;99.90;;;;;;4966933;28;20042;-88
2022/06/12 05:01:49;;;;;;;6.97;4.45;;;15.40;99.90;;;;;;4969106;28;20034;-89
2022/06/12 05:04:18;;;;;;;12.13;3.60;;;15.40;99.90;;;;;;4961971;28;20488;-88
2022/06/12 05:06:45;;;;;;;19.02;5.35;;;15.40;99.90;;;;;;4967802;28;20077;-89
2022/06/12 05:09:14;;;;;;;7.80;4.03;;;15.40;99.90;;;;;;4961465;28;20585;-88
2022/06/12 05:11:43;;;;;;;9.82;4.22;;;15.40;99.90;;;;;;4966764;28;20065;-88
2022/06/12 05:14:12;;;;;;;12.30;6.10;;;15.40;99.90;;;;;;4973671;28;20038;-89
2022/06/12 05:16:48;;;;;;;8.13;3.70;;;15.40;99.90;;;;;;4947975;28;20054;-88
2022/06/12 05:19:19;;;;;;;10.25;4.32;;;15.40;99.90;;;;;;4992637;28;20128;-88
2022/06/12 05:21:46;;;;;;;8.25;4.80;;;15.40;99.90;;;;;;4975567;28;20050;-88
2022/06/12 05:24:14;;;;;;;5.22;4.00;;;15.40;99.90;;;;;;4973124;28;20051;-88
2022/06/12 05:26:45;;;;;;;14.32;4.40;;;15.40;99.90;;;;;;4968260;28;20042;-88
2022/06/12 05:29:23;;;;;;;12.25;4.90;;;15.50;99.90;;;;;;4986099;28;20164;-89
2022/06/12 05:31:52;;;;;;;6.55;4.22;;;15.50;99.90;;;;;;4972474;28;20046;-91
2022/06/12 05:34:21;;;;;;;8.32;4.18;;;15.50;99.90;;;;;;4983915;28;20131;-88
2022/06/12 05:36:49;;;;;;;8.30;4.68;;;15.50;99.90;;;;;;4953102;28;20137;-89
2022/06/12 05:39:16;;;;;;;5.20;2.88;;;15.50;99.90;;;;;;4962045;28;20061;-88
2022/06/12 05:41:44;;;;;;;7.72;3.47;;;15.50;99.90;;;;;;4949182;28;20046;-89
2022/06/12 05:44:13;;;;;;;5.88;3.67;;;15.60;99.90;;;;;;4985864;28;20054;-89
2022/06/12 05:46:42;;;;;;;9.65;4.07;;;15.60;99.90;;;;;;4978818;28;20238;-88
2022/06/12 05:49:10;;;;;;;7.13;4.05;;;15.60;99.90;;;;;;4957916;28;20132;-88
2022/06/12 05:51:38;;;;;;;12.05;6.60;;;15.50;99.90;;;;;;4964231;28;20465;-90
2022/06/12 05:54:10;;;;;;;16.33;6.30;;;15.50;99.90;;;;;;4963221;28;20158;-89
2022/06/12 05:56:45;;;;;;;12.43;4.35;;;15.50;99.90;;;;;;4969711;28;20043;-90
2022/06/12 05:59:18;;;;;;;8.48;4.90;;;15.50;99.90;;;;;;4966839;28;20050;-91
2022/06/12 06:01:45;;;;;;;10.30;4.50;;;15.60;99.90;;;;;;4977257;28;20069;-90
2022/06/12 06:04:12;;;;;;;9.68;4.38;;;15.60;99.90;;;;;;4981477;28;20054;-90
2022/06/12 06:06:49;;;;;;;7.22;4.05;;;15.60;99.90;;;;;;4945902;28;20066;-90
2022/06/12 06:09:17;;;;;;;8.02;4.45;;;15.60;99.90;;;;;;4955773;28;20065;-89
2022/06/12 06:11:47;;;;;;;12.32;4.85;;;15.60;99.90;;;;;;4960149;28;20042;-92
2022/06/12 06:14:22;;;;;;;11.50;4.88;;;15.60;99.90;;;;;;4961918;28;20081;-90
2022/06/12 06:16:52;;;;;;;10.77;3.72;;;15.70;99.90;;;;;;4982125;28;20046;-90
2022/06/12 06:19:19;;;;;;;11.15;5.20;;;15.70;99.90;;;;;;4964090;28;20140;-90
2022/06/12 06:21:46;;;;;;;11.13;4.60;;;15.70;99.90;;;;;;4980242;28;20058;-90
2022/06/12 06:24:14;;;;;;;7.22;3.88;;;15.70;99.90;;;;;;4964384;28;20061;-89
2022/06/12 06:26:43;;;;;;;8.27;4.38;;;15.70;99.90;;;;;;4960006;28;20388;-89
2022/06/12 06:29:11;;;;;;;11.88;3.40;;;15.70;99.90;;;;;;4970170;28;20058;-89
2022/06/12 06:31:38;;;;;;;7.35;3.88;;;15.70;99.90;;;;;;4974329;28;20566;-90
2022/06/12 06:34:06;;;;;;;6.18;3.55;;;15.80;99.90;;;;;;4954867;28;20579;-90
2022/06/12 06:36:33;;;;;;;11.25;3.92;;;15.80;99.90;;;;;;4990255;28;20054;-89
2022/06/12 06:39:00;;;;;;;11.30;3.63;;;15.90;99.90;;;;;;4951543;28;20069;-90
2022/06/12 06:41:28;;;;;;;9.23;3.75;;;15.90;99.90;;;;;;4971237;28;20042;-90
2022/06/12 06:46:41;;;;;;;5.68;3.42;;;15.90;99.90;;;;;;4982973;28;20054;-89
2022/06/12 06:49:14;;;;;;;10.52;3.58;;;15.90;99.90;;;;;;4980063;28;20050;-89
2022/06/12 06:51:42;;;;;;;9.15;3.50;;;15.90;99.90;;;;;;4972217;28;20054;-88
2022/06/12 06:54:09;;;;;;;7.93;3.63;;;16.00;99.90;;;;;;4971778;28;20691;-87
2022/06/12 06:56:36;;;;;;;9.85;4.50;;;16.00;99.90;;;;;;4987655;28;20054;-88
2022/06/12 06:59:03;;;;;;;13.05;4.80;;;16.00;99.90;;;;;;4976814;28;20379;-88
2022/06/12 07:01:30;;;;;;;14.52;3.47;;;16.00;99.90;;;;;;4988317;28;20145;-88
2022/06/12 07:03:57;;;;;;;8.07;3.33;;;16.10;99.90;;;;;;4967920;28;20113;-88
2022/06/12 07:06:24;;;;;;;11.80;3.42;;;16.10;99.90;;;;;;4984913;28;20042;-87
2022/06/12 07:08:53;;;;;;;12.10;5.13;;;16.20;99.90;;;;;;4966265;28;20057;-87
2022/06/12 07:11:23;;;;;;;11.02;3.83;;;16.20;99.90;;;;;;4966795;28;20058;-87
2022/06/12 07:13:52;;;;;;;4.95;2.75;;;16.10;99.90;;;;;;4962240;28;20463;-89
2022/06/12 07:16:20;;;;;;;8.75;3.80;;;16.10;99.90;;;;;;4969850;28;20049;-89
2022/06/12 07:18:47;;;;;;;8.60;3.40;;;16.10;99.90;;;;;;4968883;28;20077;-89
2022/06/12 07:21:15;;;;;;;8.43;4.45;;;16.10;99.90;;;;;;4986637;28;20069;-89
2022/06/12 07:23:42;;;;;;;9.93;3.88;;;16.10;99.90;;;;;;4954960;28;20055;-89
2022/06/12 07:26:18;;;;;;;10.73;3.58;;;16.10;99.90;;;;;;4983719;28;20046;-88
2022/06/12 07:28:45;;;;;;;9.27;3.53;;;16.10;99.90;;;;;;4983433;28;20046;-89
2022/06/12 07:31:12;;;;;;;18.75;4.13;;;16.20;99.90;;;;;;4965476;28;20150;-88
2022/06/12 07:33:39;;;;;;;10.75;3.35;;;16.20;99.90;;;;;;4986062;28;20696;-88
2022/06/12 07:36:09;;;;;;;7.10;3.28;;;16.20;99.90;;;;;;4968361;28;20050;-88
2022/06/12 07:38:37;;;;;;;5.28;2.90;;;16.30;99.90;;;;;;4983928;28;20050;-88
2022/06/12 07:41:24;;;;;;;12.25;4.45;;;16.40;99.90;;;;;;4982142;28;20137;-89
2022/06/12 07:43:51;;;;;;;11.10;4.85;;;16.30;99.90;;;;;;4984250;28;20050;-88
2022/06/12 07:46:20;;;;;;;12.57;4.03;;;16.30;99.90;;;;;;4980543;28;20703;-88
2022/06/12 07:48:51;;;;;;;14.82;3.63;;;16.40;99.90;;;;;;4986755;28;20078;-88
2022/06/12 07:51:20;;;;;;;7.15;3.28;;;16.50;99.90;;;;;;4983306;28;20507;-87
2022/06/12 07:53:49;;;;;;;12.30;3.38;;;16.50;99.90;;;;;;4991989;28;20078;-87
2022/06/12 07:56:17;;;;;;;7.10;3.45;;;16.60;99.90;;;;;;4983254;28;20128;-88
2022/06/12 07:58:45;;;;;;;7.47;2.78;;;16.60;99.90;;;;;;4984908;28;20054;-88
2022/06/12 08:01:17;;;;;;;6.78;2.40;;;16.60;99.90;;;;;;4967324;28;20060;-86
2022/06/12 08:03:44;;;;;;;7.00;2.90;;;16.70;99.90;;;;;;4984749;28;20183;-85
2022/06/12 08:06:12;;;;;;;11.10;3.85;;;16.80;99.90;;;;;;4989085;28;20062;-85
2022/06/12 08:08:39;;;;;;;7.53;2.63;;;16.90;99.90;;;;;;4983748;28;20121;-85
2022/06/12 08:11:06;;;;;;;11.77;4.20;;;16.90;99.90;;;;;;4985893;28;20064;-85
2022/06/12 08:13:33;;;;;;;12.63;3.72;;;17.00;99.90;;;;;;4981755;28;20431;-85
2022/06/12 08:16:01;;;;;;;10.32;4.55;;;17.10;99.90;;;;;;4984945;28;20050;-86
2022/06/12 08:18:28;;;;;;;11.10;3.50;;;17.10;99.90;;;;;;4982439;28;20054;-85
2022/06/12 08:21:00;;;;;;;13.98;4.63;;;17.00;99.90;;;;;;4966233;28;20053;-86
2022/06/12 08:23:44;;;;;;;8.73;4.00;;;17.00;99.90;;;;;;4978201;28;20050;-87
2022/06/12 08:26:33;;;;;;;8.35;3.88;;;16.90;99.90;;;;;;4984831;28;20046;-88
2022/06/12 08:29:07;;;;;;;9.48;2.72;;;16.90;99.90;;;;;;4981962;28;20054;-86
2022/06/12 08:31:45;;;;;;;11.35;4.15;;;16.90;99.90;;;;;;4965882;28;20412;-89
2022/06/12 08:34:21;;;;;;;11.55;4.68;;;17.00;99.90;;;;;;4983339;28;20046;-88
2022/06/12 08:36:53;;;;;;;10.27;3.38;;;16.90;99.90;;;;;;4970868;28;20050;-88
2022/06/12 08:39:20;;;;;;;7.32;3.55;;;16.90;99.90;;;;;;4952356;28;20050;-89
2022/06/12 08:41:54;;;;;;;10.75;4.18;;;17.00;99.90;;;;;;4970902;28;20038;-88
2022/06/12 08:44:27;;;;;;;12.40;3.85;;;17.00;99.90;;;;;;4980351;28;20073;-89
2022/06/12 08:46:59;;;;;;;6.63;3.58;;;17.10;99.90;;;;;;4971410;28;20050;-88
2022/06/12 08:49:40;;;;;;;7.97;3.13;;;17.10;99.90;;;;;;4975441;28;20045;-87
2022/06/12 08:52:30;;;;;;;10.57;3.65;;;17.20;99.90;;;;;;4955899;28;20061;-89
2022/06/12 08:55:14;;;;;;;7.07;2.80;;;17.30;99.90;;;;;;4957242;28;20908;-89
2022/06/12 08:57:58;;;;;;;9.73;3.30;;;17.30;99.90;;;;;;4954325;28;20047;-88
2022/06/12 09:00:30;;;;;;;4.85;3.15;;;17.40;99.90;;;;;;4962405;28;20043;-88
2022/06/12 09:02:57;;;;;;;10.77;4.20;;;17.40;99.90;;;;;;4964603;28;20153;-88
2022/06/12 09:05:40;;;;;;;10.82;3.67;;;17.40;99.90;;;;;;4982680;28;20109;-88
2022/06/12 09:08:23;;;;;;;8.30;3.28;;;17.50;99.90;;;;;;4982887;28;20077;-88
2022/06/12 09:11:02;;;;;;;7.72;3.20;;;17.50;99.90;;;;;;4965822;28;20370;-88
2022/06/12 09:14:11;;;;;;;6.15;2.33;;;17.60;99.90;;;;;;4977940;28;20714;-89
2022/06/12 09:17:19;;;;;;;10.05;3.30;;;17.80;99.90;;;;;;4979159;28;20560;-90
2022/06/12 09:20:17;;;;;;;9.43;2.17;;;17.80;99.90;;;;;;4982906;28;20050;-89
2022/06/12 09:23:21;;;;;;;8.23;2.67;;;17.70;99.90;;;;;;4963752;28;20562;-89
2022/06/12 09:26:09;;;;;;;9.50;2.45;;;17.80;99.90;;;;;;4977361;28;20038;-89
2022/06/12 09:28:59;;;;;;;6.05;3.60;;;17.80;99.90;;;;;;4964532;28;20081;-88
2022/06/12 09:31:41;;;;;;;5.43;2.58;;;17.90;99.90;;;;;;4978994;28;20049;-89
2022/06/12 09:34:26;;;;;;;14.23;3.72;;;18.00;99.90;;;;;;4984019;28;20081;-89
2022/06/12 09:38:18;;;;;;;4.25;2.75;;;18.00;99.90;;;;;;4981559;28;20050;-89
2022/06/12 09:40:27;;;;;;;7.72;2.58;;;18.00;99.90;;;;;;4963933;28;20050;-88
2022/06/12 09:43:25;;;;;;;11.05;3.40;;;18.10;99.90;;;;;;4971381;28;20082;-88
2022/06/12 09:46:17;;;;;;;10.18;2.78;;;18.00;99.90;;;;;;4981337;28;20511;-88
2022/06/12 09:49:05;;;;;;;9.30;2.65;;;18.10;99.90;;;;;;4978618;28;20499;-89
2022/06/12 09:51:44;;;;;;;9.80;2.95;;;18.30;99.90;;;;;;4980744;28;20057;-89
2022/06/12 09:54:26;;;;;;;5.90;2.50;;;18.30;99.90;;;;;;4982065;28;20046;-89
2022/06/12 09:57:17;;;;;;;4.82;1.98;;;18.40;99.90;;;;;;4980648;28;20160;-89
2022/06/12 10:00:16;;;;;;;8.00;2.22;;;18.60;99.90;;;;;;4976593;28;20054;-88
2022/06/12 10:03:03;;;;;;;7.18;1.58;;;18.60;99.90;;;;;;4963551;28;20426;-89
2022/06/12 10:05:46;;;;;;;5.50;2.08;;;18.70;99.90;;;;;;4972160;28;20068;-90
2022/06/12 10:08:26;;;;;;;4.07;2.00;;;18.70;99.90;;;;;;4979936;28;20065;-89
2022/06/12 10:11:03;;;;;;;3.92;1.60;;;18.70;99.90;;;;;;4967025;28;20611;-89
2022/06/12 10:13:45;;;;;;;6.97;1.70;;;18.90;99.90;;;;;;4984005;28;20049;-90
2022/06/12 10:16:22;;;;;;;6.30;1.73;;;19.10;99.90;;;;;;4969368;28;20442;-89
2022/06/12 10:19:43;;;;;;;4.68;1.95;;;19.00;99.90;;;;;;4983657;28;20554;-89
2022/06/12 10:22:14;;;;;;;;;;;19.00;99.90;;;;;;4956810;28;20116;-89
2022/06/12 10:24:41;;;;;;;5.03;1.98;;;19.20;99.90;;;;;;4974967;28;20020;-88
2022/06/12 10:27:12;;;;;;;6.00;1.95;;;19.20;99.90;;;;;;4964105;28;20377;-89
2022/06/12 10:29:47;;;;;;;5.30;2.08;;;19.10;99.90;;;;;;4988073;28;20206;-89
2022/06/12 10:32:19;;;;;;;3.80;2.30;;;19.20;99.90;;;;;;4977380;28;20716;-89
2022/06/12 10:34:47;;;;;;;5.05;2.63;;;19.40;99.90;;;;;;4990155;28;20112;-89
2022/06/12 10:37:19;;;;;;;6.70;2.13;;;19.40;99.90;;;;;;4969314;28;20061;-89
2022/06/12 10:40:14;;;;;;;15.82;2.25;;;19.60;99.90;;;;;;4988708;28;20503;-90
2022/06/12 10:43:02;;;;;;;4.80;2.20;;;19.60;99.90;;;;;;4980469;28;20157;-91
2022/06/12 10:45:36;;;;;;;2.45;1.92;;;19.70;99.90;;;;;;4987175;28;20046;-88
2022/06/12 10:48:23;;;;;;;3.15;1.42;;;19.80;99.90;;;;;;4979485;28;20050;-87
2022/06/12 10:50:53;;;;;;;3.10;1.40;;;19.90;99.90;;;;;;4940543;28;20499;-88
2022/06/12 10:53:23;;;;;;;5.20;2.90;;;19.90;99.90;;;;;;4980259;28;20833;-89
2022/06/12 10:56:08;;;;;;;5.78;1.33;;;20.10;99.90;;;;;;4984086;28;20496;-89
2022/06/12 10:58:47;;;;;;;4.78;1.90;;;20.30;99.90;;;;;;4981459;28;20065;-89
2022/06/12 11:01:42;;;;;;;5.38;2.53;;;20.10;99.90;;;;;;4976495;28;20053;-89
2022/06/12 11:04:19;;;;;;;1.85;1.58;;;20.00;99.90;;;;;;4981744;28;20058;-91
2022/06/12 11:07:02;;;;;;;10.60;3.05;;;20.00;99.90;;;;;;4979180;28;20487;-89
2022/06/12 11:09:45;;;;;;;3.47;1.48;;;20.30;99.90;;;;;;4972217;28;20120;-89
2022/06/12 11:12:23;;;;;;;4.90;0.93;;;20.40;99.90;;;;;;4948225;28;20050;-91
2022/06/12 11:15:08;;;;;;;4.22;2.15;;;20.40;99.90;;;;;;4975285;28;20054;-91
2022/06/12 11:17:58;;;;;;;3.08;1.48;;;20.30;99.90;;;;;;4978837;28;20109;-89
2022/06/12 11:20:58;;;;;;;3.90;1.30;;;20.20;99.90;;;;;;4960668;28;20050;-89
2022/06/12 11:24:03;;;;;;;5.05;1.75;;;20.10;99.90;;;;;;4977557;28;20057;-88
2022/06/12 11:26:41;;;;;;;4.60;1.92;;;20.20;99.90;;;;;;4937729;28;20054;-87
2022/06/12 11:29:22;;;;;;;5.65;2.55;;;20.30;99.90;;;;;;4979491;28;20208;-85
2022/06/12 11:32:13;;;;;;;5.97;4.55;;;20.30;99.90;;;;;;4972280;28;20043;-88
2022/06/12 11:35:11;;;;;;;4.85;1.90;;;20.30;99.90;;;;;;4983372;28;20065;-88
2022/06/12 11:38:29;;;;;;;5.22;1.95;;;20.50;99.90;;;;;;4985019;28;20072;-87
2022/06/12 11:41:02;;;;;;;4.13;1.65;;;20.60;99.90;;;;;;4940232;28;20053;-87
2022/06/12 11:43:51;;;;;;;5.72;1.67;;;20.70;99.90;;;;;;4976233;28;20046;-88
2022/06/12 11:46:34;;;;;;;4.93;1.50;;;20.80;99.90;;;;;;4984546;28;20100;-86
2022/06/12 11:49:04;;;;;;;4.78;2.00;;;20.80;99.90;;;;;;4973203;28;20061;-86
2022/06/12 11:51:35;;;;;;;5.70;2.55;;;20.90;99.90;;;;;;4971757;28;20045;-87
2022/06/12 11:54:05;;;;;;;7.07;2.50;;;20.90;99.90;;;;;;4988753;28;20105;-84
2022/06/12 11:56:46;;;;;;;5.75;1.98;;;21.00;99.90;;;;;;4985159;28;20030;-87
2022/06/12 11:59:22;;;;;;;6.63;1.77;;;20.90;99.90;;;;;;4966826;28;20069;-85
2022/06/12 12:02:12;;;;;;;4.55;1.48;;;21.20;99.90;;;;;;4980648;28;20057;-87
2022/06/12 12:05:07;;;;;;;6.20;1.98;;;21.50;99.90;;;;;;4989173;28;20042;-85
2022/06/12 12:07:48;;;;;;;4.50;2.95;;;21.40;99.10;;;;;;4985707;28;20199;-82
2022/06/12 12:10:26;;;;;;;3.22;1.65;;;21.20;99.10;;;;;;4985239;28;20139;-85
2022/06/12 12:13:05;;;;;;;2.83;1.10;;;21.30;99.90;;;;;;4962468;28;20038;-84
2022/06/12 12:15:42;;;;;;;4.10;1.60;;;21.40;99.90;;;;;;4989695;28;20058;-83
2022/06/12 12:18:32;;;;;;;5.40;1.95;;;21.40;99.90;;;;;;4995818;28;20130;-85
2022/06/12 12:21:00;;;;;;;;;;;21.60;99.70;;;;;;4980221;28;20050;-85
2022/06/12 12:23:35;;;;;;;4.72;2.38;;;21.60;99.40;;;;;;4971918;28;19994;-87
2022/06/12 12:26:25;;;;;;;5.28;1.98;;;21.80;99.90;;;;;;4962281;28;20038;-87
2022/06/12 12:28:58;;;;;;;1.88;1.30;;;21.90;99.60;;;;;;4952217;28;20137;-86
2022/06/12 12:31:26;;;;;;;3.42;1.10;;;21.90;99.00;;;;;;4964422;28;20057;-86
2022/06/12 12:33:57;;;;;;;5.65;1.98;;;22.10;99.60;;;;;;4990766;28;20081;-86
2022/06/12 12:42:47;;;;;;;;;;;21.50;99.40;;;;;;4916513;28;20057;-86
2022/06/12 12:45:38;;;;;;;4.70;1.67;;;21.30;99.00;;;;;;4931548;28;20013;-85
2022/06/12 12:48:15;;;;;;;3.30;1.98;;;21.00;99.90;;;;;;4981024;28;20747;-87
2022/06/12 12:50:55;;;;;;;9.27;2.42;;;21.30;99.90;;;;;;4909328;28;20065;-86
2022/06/12 12:53:51;;;;;;;;;;;;;;;;;;;;;
2022/06/12 12:57:04;;;;;;;63.35;56.72;;;21.60;99.90;;;;;;4964088;28;20405;-88
2022/06/12 13:00:05;;;;;;;7.82;6.07;;;21.80;99.90;;;;;;4966115;28;20053;-89
2022/06/12 13:03:03;;;;;;;7.82;5.35;;;21.80;99.90;;;;;;4938775;28;20043;-87
2022/06/12 13:05:46;;;;;;;20.45;17.08;;;22.20;99.90;;;;;;5010321;28;20057;-87
2022/06/12 13:08:54;;;;;;;377.30;339.25;;;22.50;99.50;;;;;;4986102;28;20407;-88
2022/06/12 13:12:13;;;;;;;23.75;21.30;;;22.50;99.20;;;;;;4961619;28;20053;-90
2022/06/12 13:16:22;;;;;;;68.63;62.70;;;22.90;99.50;;;;;;4951550;28;20116;-90
2022/06/12 13:19:47;;;;;;;9.90;6.63;;;22.80;98.60;;;;;;4863397;29;20059;-90
2022/06/12 13:22:47;;;;;;;8.38;5.47;;;22.40;99.90;;;;;;4925944;28;20060;-87
2022/06/12 13:25:35;;;;;;;22.95;21.13;;;21.70;99.30;;;;;;4943140;28;20057;-88
2022/06/12 13:28:28;;;;;;;7.38;4.00;;;21.30;99.90;;;;;;4988419;28;20200;-89
2022/06/12 13:30:57;;;;;;;6.40;2.65;;;20.80;99.90;;;;;;4996331;28;20053;-88
2022/06/12 13:33:32;;;;;;;31.00;28.33;;;20.70;99.90;;;;;;4983759;28;20050;-88
2022/06/12 13:36:17;;;;;;;12.82;7.05;;;20.40;99.90;;;;;;5006802;28;20042;-88
2022/06/12 13:39:17;;;;;;;89.28;81.03;;;20.20;99.90;;;;;;5008393;28;20041;-88
2022/06/12 13:41:51;;;;;;;102.70;87.82;;;20.10;99.90;;;;;;4994731;28;20053;-87
2022/06/12 13:44:27;;;;;;;46.83;33.30;;;20.00;99.90;;;;;;4976644;28;20050;-89
2022/06/12 13:46:55;;;;;;;168.27;152.13;;;19.90;99.90;;;;;;5005400;28;20112;-87
2022/06/12 13:49:39;;;;;;;490.35;447.45;;;19.90;99.90;;;;;;4991848;28;20037;-88
2022/06/12 13:52:33;;;;;;;288.73;257.40;;;19.90;99.90;;;;;;4934458;28;20038;-87
2022/06/12 13:55:01;;;;;;;312.75;285.85;;;20.00;99.90;;;;;;4993359;28;20128;-87
2022/06/12 13:57:35;;;;;;;200.43;174.27;;;20.00;99.90;;;;;;4990615;28;20117;-87
2022/06/12 14:00:22;;;;;;;255.68;230.93;;;20.00;99.90;;;;;;4974559;28;20041;-87